createdAt,value
2022-08-11T00:02:15.089Z,17.57
2022-08-11T00:04:49.482Z,17.50
2022-08-11T00:07:22.716Z,17.48
2022-08-11T00:09:56.539Z,17.47
2022-08-11T00:12:30.067Z,17.41
2022-08-11T00:15:03.065Z,17.48
2022-08-11T00:17:36.723Z,17.47
2022-08-11T00:20:16.207Z,17.43
2022-08-11T00:22:50.754Z,17.42
2022-08-11T00:25:24.323Z,17.41
2022-08-11T00:27:56.761Z,17.37
2022-08-11T00:30:38.904Z,17.35
2022-08-11T00:33:11.568Z,17.28
2022-08-11T00:35:51.650Z,17.29
2022-08-11T00:38:34.144Z,17.21
2022-08-11T00:41:28.199Z,17.18
2022-08-11T00:44:19.383Z,17.11
2022-08-11T00:47:02.124Z,17.13
2022-08-11T00:49:45.091Z,17.18
2022-08-11T00:52:44.337Z,17.15
2022-08-11T00:55:55.821Z,17.07
2022-08-11T00:59:34.165Z,17.04
2022-08-11T01:02:18.140Z,16.99
2022-08-11T01:05:22.988Z,17.04
2022-08-11T01:08:28.987Z,16.92
2022-08-11T01:11:56.008Z,16.81
2022-08-11T01:15:14.977Z,16.74
2022-08-11T01:18:35.079Z,16.74
2022-08-11T01:21:38.007Z,16.67
2022-08-11T01:24:42.435Z,16.72
2022-08-11T01:27:52.495Z,16.71
2022-08-11T01:31:06.012Z,16.72
2022-08-11T01:34:15.689Z,16.72
2022-08-11T01:37:06.497Z,16.63
2022-08-11T01:40:15.118Z,16.63
2022-08-11T01:43:35.030Z,16.54
2022-08-11T01:46:15.602Z,16.53
2022-08-11T01:50:09.057Z,16.44
2022-08-11T01:52:12.995Z,16.47
2022-08-11T01:54:56.427Z,16.48
2022-08-11T01:57:37.639Z,16.47
2022-08-11T02:00:15.873Z,16.45
2022-08-11T02:02:55.881Z,16.38
2022-08-11T02:05:47.114Z,16.44
2022-08-11T02:08:44.208Z,16.36
2022-08-11T02:11:35.188Z,16.37
2022-08-11T02:14:20.240Z,16.33
2022-08-11T02:17:15.455Z,16.20
2022-08-11T02:20:13.069Z,16.22
2022-08-11T02:23:12.565Z,16.14
2022-08-11T02:25:53.753Z,16.07
2022-08-11T02:28:34.695Z,16.03
2022-08-11T02:32:15.804Z,16.02
2022-08-11T02:34:40.198Z,16.01
2022-08-11T02:37:23.892Z,15.97
2022-08-11T02:40:15.906Z,15.84
2022-08-11T02:43:09.607Z,15.85
2022-08-11T02:45:53.872Z,15.74
2022-08-11T02:49:00.144Z,15.67
2022-08-11T02:51:48.117Z,15.63
2022-08-11T02:54:26.165Z,15.62
2022-08-11T02:57:04.025Z,15.63
2022-08-11T02:59:52.658Z,15.66
2022-08-11T03:02:46.197Z,15.67
2022-08-11T03:05:27.044Z,15.64
2022-08-11T03:08:13.807Z,15.64
2022-08-11T03:11:15.074Z,15.58
2022-08-11T03:14:15.964Z,15.49
2022-08-11T03:16:55.247Z,15.41
2022-08-11T03:19:42.419Z,15.42
2022-08-11T03:22:23.130Z,15.42
2022-08-11T03:25:02.642Z,15.49
2022-08-11T03:27:48.591Z,15.53
2022-08-11T03:30:27.565Z,15.51
2022-08-11T03:33:37.647Z,15.42
2022-08-11T03:36:28.001Z,15.48
2022-08-11T03:39:13.394Z,15.41
2022-08-11T03:42:03.516Z,15.47
2022-08-11T03:45:12.619Z,15.45
2022-08-11T03:47:57.023Z,15.38
2022-08-11T03:51:03.400Z,15.40
2022-08-11T03:53:57.738Z,15.41
2022-08-11T03:57:15.120Z,15.38
2022-08-11T04:00:11.218Z,15.24
2022-08-11T04:03:12.653Z,15.20
2022-08-11T04:06:17.439Z,15.25
2022-08-11T04:09:23.739Z,15.12
2022-08-11T04:12:47.714Z,15.10
2022-08-11T04:16:12.440Z,15.13
2022-08-11T04:19:15.029Z,15.10
2022-08-11T04:22:35.665Z,15.13
2022-08-11T04:25:57.923Z,15.10
2022-08-11T04:28:55.322Z,15.19
2022-08-11T04:31:44.451Z,15.20
2022-08-11T04:34:54.742Z,15.19
2022-08-11T04:37:43.064Z,15.24
2022-08-11T04:40:43.923Z,15.22
2022-08-11T04:44:06.936Z,15.25
2022-08-11T04:47:01.306Z,15.29
2022-08-11T04:50:16.668Z,15.32
2022-08-11T04:53:43.956Z,15.36
2022-08-11T04:56:36.451Z,15.45
2022-08-11T04:59:46.178Z,15.49
2022-08-11T05:02:48.046Z,15.55
2022-08-11T05:05:31.778Z,15.62
2022-08-11T05:08:39.614Z,15.69
2022-08-11T05:11:33.659Z,15.82
2022-08-11T05:14:48.323Z,16.02
2022-08-11T05:17:58.587Z,16.16
2022-08-11T05:20:58.878Z,16.30
2022-08-11T05:23:52.352Z,16.43
2022-08-11T05:26:49.345Z,16.60
2022-08-11T05:29:46.889Z,16.76
2022-08-11T05:32:44.874Z,16.92
2022-08-11T05:36:00.015Z,17.07
2022-08-11T05:38:41.168Z,17.14
2022-08-11T05:41:32.847Z,17.23
2022-08-11T05:44:24.908Z,17.38
2022-08-11T05:47:16.060Z,17.46
2022-08-11T05:50:08.240Z,17.60
2022-08-11T05:53:08.909Z,17.67
2022-08-11T05:56:03.976Z,17.77
2022-08-11T05:58:42.733Z,17.88
2022-08-11T06:01:24.781Z,18.03
2022-08-11T06:04:14.190Z,18.21
2022-08-11T06:06:52.538Z,18.23
2022-08-11T06:09:28.184Z,18.40
2022-08-11T06:12:03.517Z,18.55
2022-08-11T06:14:42.462Z,18.68
2022-08-11T06:17:23.017Z,18.80
2022-08-11T06:20:04.234Z,18.91
2022-08-11T06:22:43.909Z,19.05
2022-08-11T06:25:17.457Z,19.18
2022-08-11T06:27:56.147Z,19.32
2022-08-11T06:30:39.832Z,19.43
2022-08-11T06:33:15.881Z,19.57
2022-08-11T06:35:59.973Z,19.79
2022-08-11T06:38:53.645Z,19.91
2022-08-11T06:41:33.825Z,20.05
2022-08-11T06:44:27.450Z,20.22
2022-08-11T06:47:08.491Z,20.23
2022-08-11T06:50:04.005Z,20.42
2022-08-11T06:52:38.236Z,20.59
2022-08-11T06:55:56.721Z,20.77
2022-08-11T06:58:49.442Z,21.06
2022-08-11T07:01:37.393Z,21.29
2022-08-11T07:04:11.077Z,21.44
2022-08-11T07:07:12.276Z,21.55
2022-08-11T07:10:41.709Z,21.88
2022-08-11T07:18:30.757Z,22.00
2022-08-11T07:22:01.477Z,22.06
2022-08-11T07:25:01.347Z,22.34
2022-08-11T07:28:00.081Z,22.40
2022-08-11T07:30:37.362Z,22.49
2022-08-11T07:33:11.505Z,22.58
2022-08-11T07:36:04.998Z,22.63
2022-08-11T07:38:43.615Z,22.65
2022-08-11T07:41:22.360Z,22.71
2022-08-11T07:44:08.447Z,22.99
2022-08-11T07:47:01.182Z,23.05
2022-08-11T07:49:55.560Z,23.16
2022-08-11T07:52:31.743Z,23.03
2022-08-11T07:55:08.482Z,23.20
2022-08-11T07:58:16.395Z,23.36
2022-08-11T08:01:21.793Z,23.48
2022-08-11T08:04:13.550Z,23.71
2022-08-11T08:07:04.720Z,23.70
2022-08-11T08:09:56.204Z,23.93
2022-08-11T08:12:48.690Z,24.18
2022-08-11T08:15:40.861Z,24.40
2022-08-11T08:18:27.091Z,24.35
2022-08-11T08:21:11.240Z,24.83
2022-08-11T08:23:45.864Z,24.85
2022-08-11T08:26:40.455Z,24.59
2022-08-11T08:29:30.991Z,24.78
2022-08-11T08:32:04.781Z,25.00
2022-08-11T08:34:37.959Z,25.05
2022-08-11T08:37:16.215Z,24.97
2022-08-11T08:40:07.611Z,25.16
2022-08-11T08:42:50.745Z,25.28
2022-08-11T08:45:24.696Z,25.63
2022-08-11T08:48:01.443Z,25.67
2022-08-11T08:50:54.697Z,25.77
2022-08-11T08:53:31.318Z,25.89
2022-08-11T08:56:07.002Z,26.33
2022-08-11T08:58:42.246Z,26.56
2022-08-11T09:01:16.291Z,26.46
2022-08-11T09:04:05.127Z,26.40
2022-08-11T09:06:42.376Z,26.73
2022-08-11T09:09:15.267Z,26.70
2022-08-11T09:11:52.992Z,26.83
2022-08-11T09:14:48.439Z,26.91
2022-08-11T09:17:22.216Z,27.27
2022-08-11T09:19:59.721Z,27.50
2022-08-11T09:23:29.639Z,27.68
2022-08-11T09:26:10.399Z,28.10
2022-08-11T09:28:43.986Z,28.02
2022-08-11T09:31:16.908Z,27.94
2022-08-11T09:33:53.667Z,27.74
2022-08-11T09:36:45.950Z,27.82
2022-08-11T09:39:37.960Z,27.88
2022-08-11T09:42:16.671Z,27.95
2022-08-11T09:44:56.834Z,27.90
2022-08-11T09:47:31.064Z,27.99
2022-08-11T09:50:05.137Z,28.12
2022-08-11T09:53:38.158Z,27.94
2022-08-11T09:55:54.050Z,28.13
2022-08-11T09:58:41.450Z,28.14
2022-08-11T10:01:26.426Z,27.84
2022-08-11T10:04:03.644Z,27.91
2022-08-11T10:06:57.191Z,28.11
2022-08-11T10:09:38.571Z,28.29
2022-08-11T10:12:14.455Z,27.85
2022-08-11T10:15:10.611Z,28.23
2022-08-11T10:18:06.050Z,28.38
2022-08-11T10:20:39.431Z,28.12
2022-08-11T10:23:33.988Z,28.17
2022-08-11T10:26:26.922Z,28.59
2022-08-11T10:29:26.339Z,28.48
2022-08-11T10:32:54.303Z,28.43
2022-08-11T10:35:31.225Z,27.97
2022-08-11T10:38:05.859Z,28.16
2022-08-11T10:40:40.905Z,27.67
2022-08-11T10:44:02.568Z,27.84
2022-08-11T10:46:30.383Z,28.25
2022-08-11T10:49:03.448Z,28.46
2022-08-11T10:51:54.457Z,28.54
2022-08-11T10:54:51.194Z,28.79
2022-08-11T10:57:42.525Z,28.69
2022-08-11T11:00:36.062Z,28.61
2022-08-11T11:03:23.395Z,28.51
2022-08-11T11:06:28.666Z,28.38
2022-08-11T11:09:04.077Z,28.60
2022-08-11T11:12:00.880Z,28.61
2022-08-11T11:14:58.184Z,28.67
2022-08-11T11:17:57.012Z,28.96
2022-08-11T11:20:38.718Z,29.02
2022-08-11T11:23:17.901Z,29.18
2022-08-11T11:26:14.155Z,29.67
2022-08-11T11:29:07.507Z,29.55
2022-08-11T11:31:55.816Z,29.57
2022-08-11T11:34:52.868Z,29.56
2022-08-11T11:37:29.252Z,29.50
2022-08-11T11:40:09.688Z,29.75
2022-08-11T11:42:44.299Z,29.66
2022-08-11T11:45:23.777Z,29.94
2022-08-11T11:47:59.568Z,29.83
2022-08-11T11:50:36.365Z,29.88
2022-08-11T11:53:12.860Z,29.78
2022-08-11T11:55:46.603Z,30.00
2022-08-11T11:58:37.526Z,30.19
2022-08-11T12:01:17.242Z,30.08
2022-08-11T12:03:52.524Z,29.78
2022-08-11T12:06:27.375Z,29.78
2022-08-11T12:09:00.671Z,29.26
2022-08-11T12:11:50.672Z,29.01
2022-08-11T12:14:26.935Z,29.23
2022-08-11T12:17:00.275Z,29.28
2022-08-11T12:19:35.832Z,29.50
2022-08-11T12:22:28.324Z,29.42
2022-08-11T12:29:00.412Z,29.94
2022-08-11T12:31:34.214Z,29.97
2022-08-11T12:34:08.819Z,29.74
2022-08-11T12:36:56.237Z,29.51
2022-08-11T12:40:16.527Z,29.57
2022-08-11T12:43:21.253Z,29.95
2022-08-11T12:45:58.814Z,29.73
2022-08-11T12:49:00.864Z,29.96
2022-08-11T12:52:12.552Z,29.72
2022-08-11T12:54:59.268Z,29.38
2022-08-11T12:57:53.533Z,29.49
2022-08-11T13:00:46.610Z,29.44
2022-08-11T13:03:39.074Z,29.24
2022-08-11T13:06:12.147Z,28.68
2022-08-11T13:08:47.092Z,28.29
2022-08-11T13:11:55.662Z,27.86
2022-08-11T13:14:32.240Z,27.76
2022-08-11T13:17:40.088Z,27.37
2022-08-11T13:20:19.842Z,27.06
2022-08-11T13:22:54.252Z,27.36
2022-08-11T13:25:31.313Z,27.45
2022-08-11T13:28:05.662Z,27.27
2022-08-11T13:30:56.670Z,27.24
2022-08-11T13:33:29.414Z,27.10
2022-08-11T13:36:02.935Z,26.75
2022-08-11T13:38:37.184Z,26.57
2022-08-11T13:41:24.994Z,26.37
2022-08-11T13:43:59.088Z,25.95
2022-08-11T13:46:35.779Z,26.03
2022-08-11T13:49:09.018Z,25.56
2022-08-11T13:51:41.560Z,25.51
2022-08-11T13:54:18.202Z,25.43
2022-08-11T13:56:54.326Z,25.52
2022-08-11T13:59:30.054Z,25.40
2022-08-11T14:02:22.252Z,25.44
2022-08-11T14:05:04.852Z,25.54
2022-08-11T14:07:49.517Z,25.77
2022-08-11T14:10:28.172Z,25.64
2022-08-11T14:13:18.141Z,25.73
2022-08-11T14:15:52.742Z,25.67
2022-08-11T14:18:28.537Z,25.82
2022-08-11T14:21:22.511Z,25.97
2022-08-11T14:23:55.139Z,26.04
2022-08-11T14:26:30.902Z,26.02
2022-08-11T14:29:09.381Z,26.10
2022-08-11T14:31:46.555Z,25.89
2022-08-11T14:34:21.020Z,25.94
2022-08-11T14:36:55.418Z,26.10
2022-08-11T14:39:29.522Z,26.08
2022-08-11T14:42:23.330Z,25.92
2022-08-11T14:45:16.072Z,25.84
2022-08-11T14:47:51.958Z,25.80
2022-08-11T14:50:26.860Z,25.87
2022-08-11T14:53:01.332Z,25.83
2022-08-11T14:55:54.500Z,25.81
2022-08-11T14:58:30.004Z,25.52
2022-08-11T15:01:23.709Z,25.54
2022-08-11T15:04:34.993Z,25.66
2022-08-11T15:06:52.730Z,25.62
2022-08-11T15:09:25.725Z,25.47
2022-08-11T15:12:31.488Z,25.36
2022-08-11T15:15:19.666Z,25.24
2022-08-11T15:17:53.803Z,25.25
2022-08-11T15:20:47.166Z,25.19
2022-08-11T15:23:37.755Z,25.26
2022-08-11T15:26:13.575Z,25.12
2022-08-11T15:29:14.262Z,25.17
2022-08-11T15:32:05.939Z,25.21
2022-08-11T15:35:03.289Z,25.21
2022-08-11T15:37:38.354Z,25.03
2022-08-11T15:40:35.805Z,25.16
2022-08-11T15:43:34.040Z,25.12
2022-08-11T15:46:11.612Z,25.12
2022-08-11T15:48:47.671Z,25.23
2022-08-11T15:51:26.950Z,25.15
2022-08-11T15:54:09.039Z,25.06
2022-08-11T15:56:45.102Z,24.88
2022-08-11T15:59:42.966Z,24.79
2022-08-11T16:02:38.102Z,24.77
2022-08-11T16:05:13.650Z,24.76
2022-08-11T16:08:07.318Z,24.86
2022-08-11T16:10:44.018Z,24.87
2022-08-11T16:13:36.150Z,24.80
2022-08-11T16:16:16.516Z,24.71
2022-08-11T16:18:55.419Z,24.57
2022-08-11T16:21:35.725Z,24.52
2022-08-11T16:27:05.986Z,24.49
2022-08-11T16:27:13.568Z,24.39
2022-08-11T16:29:50.222Z,24.27
2022-08-11T16:32:25.064Z,24.20
2022-08-11T16:35:17.996Z,24.06
2022-08-11T16:38:09.988Z,24.05
2022-08-11T16:40:44.606Z,23.99
2022-08-11T16:43:37.899Z,24.05
2022-08-11T16:46:32.143Z,24.09
2022-08-11T16:49:06.395Z,24.16
2022-08-11T16:51:38.964Z,24.10
2022-08-11T16:54:12.220Z,24.00
2022-08-11T16:56:47.639Z,23.99
2022-08-11T16:59:24.658Z,23.90
2022-08-11T17:02:02.020Z,23.86
2022-08-11T17:04:57.430Z,23.70
2022-08-11T17:07:48.427Z,23.65
2022-08-11T17:10:51.257Z,23.59
2022-08-11T17:13:31.768Z,23.56
2022-08-11T17:16:07.508Z,23.58
2022-08-11T17:18:47.414Z,23.55
2022-08-11T17:21:22.783Z,23.29
2022-08-11T17:24:01.049Z,23.29
2022-08-11T17:26:57.407Z,23.33
2022-08-11T17:29:53.509Z,23.28
2022-08-11T17:32:57.244Z,23.08
2022-08-11T17:35:38.015Z,23.08
2022-08-11T17:38:15.495Z,23.07
2022-08-11T17:41:15.265Z,23.05
2022-08-11T17:44:14.214Z,23.09
2022-08-11T17:47:06.553Z,22.93
2022-08-11T17:49:40.653Z,22.87
2022-08-11T17:52:35.241Z,22.83
2022-08-11T17:55:52.026Z,22.72
2022-08-11T17:58:39.802Z,22.70
2022-08-11T18:01:12.669Z,22.65
2022-08-11T18:03:56.239Z,22.65
2022-08-11T18:06:33.650Z,22.58
2022-08-11T18:09:28.812Z,22.59
2022-08-11T18:12:22.317Z,22.56
2022-08-11T18:15:14.755Z,22.54
2022-08-11T18:18:05.220Z,22.55
2022-08-11T18:20:56.183Z,22.50
2022-08-11T18:23:48.533Z,22.46
2022-08-11T18:26:41.991Z,22.36
2022-08-11T18:29:42.074Z,22.20
2022-08-11T18:32:53.729Z,22.03
2022-08-11T18:35:51.179Z,21.97
2022-08-11T18:38:45.771Z,22.02
2022-08-11T18:41:38.228Z,22.00
2022-08-11T18:44:33.443Z,22.03
2022-08-11T18:47:29.595Z,21.98
2022-08-11T18:53:31.148Z,21.98
2022-08-11T18:56:22.067Z,21.89
2022-08-11T18:59:15.264Z,21.87
2022-08-11T19:02:06.270Z,21.83
2022-08-11T19:04:58.498Z,21.81
2022-08-11T19:07:50.991Z,21.79
2022-08-11T19:10:42.073Z,21.78
2022-08-11T19:13:33.377Z,21.82
2022-08-11T19:16:26.831Z,21.73
2022-08-11T19:19:18.300Z,21.59
2022-08-11T19:22:09.719Z,21.55
2022-08-11T19:25:04.151Z,21.54
2022-08-11T19:27:58.328Z,21.56
2022-08-11T19:30:50.512Z,21.43
2022-08-11T19:34:02.922Z,21.42
2022-08-11T19:36:55.888Z,21.39
2022-08-11T19:39:47.962Z,21.37
2022-08-11T19:42:40.104Z,21.31
2022-08-11T19:45:32.884Z,21.30
2022-08-11T19:48:32.390Z,21.34
2022-08-11T19:51:25.682Z,21.36
2022-08-11T19:54:17.298Z,21.26
2022-08-11T19:57:09.545Z,21.28
2022-08-11T20:00:01.715Z,21.22
2022-08-11T20:02:54.903Z,21.25
2022-08-11T20:05:59.544Z,21.25
2022-08-11T20:08:56.422Z,21.27
2022-08-11T20:11:53.391Z,21.26
2022-08-11T20:14:48.485Z,21.14
2022-08-11T20:17:43.141Z,21.11
2022-08-11T20:20:34.919Z,21.02
2022-08-11T20:23:28.110Z,20.98
2022-08-11T20:26:30.712Z,20.95
2022-08-11T20:29:24.455Z,20.99
2022-08-11T20:32:16.418Z,20.96
2022-08-11T20:35:06.898Z,20.92
2022-08-11T20:37:58.828Z,20.89
2022-08-11T20:40:49.779Z,20.88
2022-08-11T20:44:08.284Z,20.85
2022-08-11T20:46:54.245Z,20.87
2022-08-11T20:49:53.817Z,20.79
2022-08-11T20:52:48.118Z,20.78
2022-08-11T20:55:52.186Z,20.72
2022-08-11T20:59:14.011Z,20.76
2022-08-11T21:01:59.042Z,20.69
2022-08-11T21:04:55.141Z,20.69
2022-08-11T21:07:56.761Z,20.59
2022-08-11T21:10:51.646Z,20.55
2022-08-11T21:13:47.118Z,20.45
2022-08-11T21:16:47.600Z,20.58
2022-08-11T21:20:00.644Z,20.50
2022-08-11T21:22:59.520Z,20.42
2022-08-11T21:26:03.612Z,20.48
2022-08-11T21:28:57.341Z,20.39
2022-08-11T21:31:50.302Z,20.45
2022-08-11T21:34:42.688Z,20.37
2022-08-11T21:37:35.394Z,20.35
2022-08-11T21:40:28.851Z,20.30
2022-08-11T21:43:21.922Z,20.24
2022-08-11T21:46:15.451Z,20.16
2022-08-11T21:49:06.999Z,20.25
2022-08-11T21:51:57.507Z,20.26
2022-08-11T21:54:49.031Z,20.24
2022-08-11T21:57:48.006Z,20.16
2022-08-11T22:00:41.102Z,20.12
2022-08-11T22:03:36.507Z,20.11
2022-08-11T22:06:41.035Z,20.00
2022-08-11T22:09:31.455Z,19.88
2022-08-11T22:12:34.144Z,19.87
2022-08-11T22:15:27.883Z,19.81
2022-08-11T22:18:19.862Z,19.79
2022-08-11T22:21:11.783Z,19.79
2022-08-11T22:24:09.507Z,19.73
2022-08-11T22:27:00.392Z,19.67
2022-08-11T22:29:51.528Z,19.51
2022-08-11T22:32:43.117Z,19.53
2022-08-11T22:35:34.578Z,19.53
2022-08-11T22:38:26.952Z,19.63
2022-08-11T22:41:17.484Z,19.67
2022-08-11T22:44:08.074Z,19.68
2022-08-11T22:47:00.092Z,19.62
2022-08-11T22:49:57.763Z,19.60
2022-08-11T22:52:47.226Z,19.43
2022-08-11T22:55:40.086Z,19.50
2022-08-11T22:58:32.517Z,19.44
2022-08-11T23:01:23.663Z,19.37
2022-08-11T23:04:15.091Z,19.35
2022-08-11T23:07:07.830Z,19.25
2022-08-11T23:09:58.748Z,19.34
2022-08-11T23:12:51.575Z,19.36
2022-08-11T23:15:42.658Z,19.28
2022-08-11T23:18:34.203Z,19.34
2022-08-11T23:21:25.438Z,19.39
2022-08-11T23:24:17.109Z,19.34
2022-08-11T23:27:08.221Z,19.26
2022-08-11T23:30:00.065Z,19.22
2022-08-11T23:32:51.509Z,19.09
2022-08-11T23:35:53.727Z,19.17
2022-08-11T23:38:47.452Z,19.15
2022-08-11T23:41:38.671Z,19.15
2022-08-11T23:44:29.312Z,19.09
2022-08-11T23:47:22.239Z,19.07
2022-08-11T23:50:13.391Z,19.03
2022-08-11T23:53:08.520Z,18.97
2022-08-11T23:55:59.571Z,18.91
2022-08-11T23:58:52.311Z,18.87
